createdAt,value
2023-02-24T00:01:54.472Z,1.20
2023-02-24T00:04:21.271Z,1.40
2023-02-24T00:06:49.016Z,1.52
2023-02-24T00:09:18.090Z,1.45
2023-02-24T00:11:49.269Z,1.23
2023-02-24T00:14:16.979Z,1.30
2023-02-24T00:16:45.250Z,1.38
2023-02-24T00:19:16.257Z,1.27
2023-02-24T00:21:43.679Z,1.50
2023-02-24T00:24:11.008Z,1.38
2023-02-24T00:26:38.388Z,1.20
2023-02-24T00:29:07.269Z,1.10
2023-02-24T00:31:34.879Z,1.50
2023-02-24T00:34:02.184Z,1.23
2023-02-24T00:36:30.584Z,1.08
2023-02-24T00:38:59.731Z,1.50
2023-02-24T00:41:29.545Z,1.05
2023-02-24T00:43:58.744Z,1.45
2023-02-24T00:46:26.533Z,1.30
2023-02-24T00:48:55.078Z,1.20
2023-02-24T00:51:24.791Z,1.33
2023-02-24T00:53:56.034Z,1.13
2023-02-24T00:56:25.947Z,1.30
2023-02-24T00:59:00.010Z,1.40
2023-02-24T01:01:31.553Z,1.15
2023-02-24T01:03:59.964Z,1.55
2023-02-24T01:06:29.293Z,1.55
2023-02-24T01:08:57.736Z,1.33
2023-02-24T01:11:51.027Z,0.95
2023-02-24T01:14:20.847Z,1.10
2023-02-24T01:16:50.469Z,1.25
2023-02-24T01:19:31.513Z,1.30
2023-02-24T01:21:59.024Z,1.40
2023-02-24T01:24:26.019Z,1.55
2023-02-24T01:26:53.109Z,1.20
2023-02-24T01:29:19.762Z,1.15
2023-02-24T01:31:48.665Z,0.90
2023-02-24T01:34:16.996Z,1.10
2023-02-24T01:36:44.399Z,1.23
2023-02-24T01:39:13.489Z,1.08
2023-02-24T01:41:43.980Z,1.17
2023-02-24T01:44:22.371Z,1.00
2023-02-24T01:46:52.110Z,1.25
2023-02-24T01:49:36.970Z,1.20
2023-02-24T01:52:13.701Z,1.20
2023-02-24T01:54:44.205Z,1.40
2023-02-24T01:57:16.647Z,1.20
2023-02-24T01:59:46.496Z,1.00
2023-02-24T02:02:14.797Z,1.08
2023-02-24T02:04:49.459Z,1.23
2023-02-24T02:07:18.824Z,1.10
2023-02-24T02:09:47.360Z,1.02
2023-02-24T02:12:14.045Z,1.00
2023-02-24T02:14:44.671Z,1.10
2023-02-24T02:20:20.054Z,0.90
2023-02-24T02:23:01.791Z,1.00
2023-02-24T02:26:05.901Z,1.00
2023-02-24T02:28:54.011Z,1.38
2023-02-24T02:31:29.984Z,0.88
2023-02-24T02:34:13.773Z,1.45
2023-02-24T02:37:17.728Z,1.27
2023-02-24T02:40:18.940Z,1.10
2023-02-24T02:42:57.804Z,0.90
2023-02-24T02:45:40.580Z,1.00
2023-02-24T02:48:15.801Z,1.10
2023-02-24T02:51:04.400Z,1.15
2023-02-24T02:53:39.136Z,1.05
2023-02-24T02:56:06.744Z,1.00
2023-02-24T02:58:37.989Z,1.33
2023-02-24T03:01:07.346Z,1.10
2023-02-24T03:03:42.634Z,1.05
2023-02-24T03:06:19.465Z,1.00
2023-02-24T03:08:55.642Z,0.93
2023-02-24T03:11:22.994Z,0.88
2023-02-24T03:13:54.313Z,0.90
2023-02-24T03:16:24.801Z,1.02
2023-02-24T03:19:00.327Z,1.30
2023-02-24T03:21:40.870Z,1.00
2023-02-24T03:24:07.808Z,1.08
2023-02-24T03:26:37.402Z,0.70
2023-02-24T03:29:11.013Z,0.80
2023-02-24T03:31:46.562Z,0.70
2023-02-24T03:34:28.994Z,0.90
2023-02-24T03:36:56.797Z,0.90
2023-02-24T03:39:24.384Z,0.52
2023-02-24T03:42:20.464Z,0.88
2023-02-24T03:44:48.495Z,1.00
2023-02-24T03:47:17.140Z,0.98
2023-02-24T03:49:43.821Z,1.15
2023-02-24T03:52:34.757Z,0.90
2023-02-24T03:55:58.857Z,0.80
2023-02-24T03:58:34.212Z,1.00
2023-02-24T04:01:29.385Z,1.08
2023-02-24T04:03:58.581Z,0.88
2023-02-24T04:06:32.004Z,0.82
2023-02-24T04:09:16.806Z,0.82
2023-02-24T04:11:58.810Z,0.90
2023-02-24T04:14:34.156Z,1.00
2023-02-24T04:17:13.493Z,0.93
2023-02-24T04:19:43.562Z,0.80
2023-02-24T04:22:15.490Z,0.90
2023-02-24T04:24:46.606Z,0.70
2023-02-24T04:27:15.735Z,0.80
2023-02-24T04:29:49.934Z,0.70
2023-02-24T04:32:21.569Z,0.70
2023-02-24T04:34:49.077Z,0.90
2023-02-24T04:37:15.698Z,0.80
2023-02-24T04:39:42.187Z,0.80
2023-02-24T04:42:08.761Z,1.05
2023-02-24T04:44:35.345Z,0.65
2023-02-24T04:47:01.909Z,0.70
2023-02-24T04:49:28.486Z,0.98
2023-02-24T04:51:57.142Z,0.93
2023-02-24T04:54:24.514Z,0.70
2023-02-24T04:56:52.092Z,0.70
2023-02-24T04:59:20.476Z,0.80
2023-02-24T05:01:47.704Z,0.65
2023-02-24T05:04:14.668Z,0.60
2023-02-24T05:06:44.030Z,0.68
2023-02-24T05:09:15.098Z,0.50
2023-02-24T05:11:42.814Z,1.25
2023-02-24T05:14:16.810Z,0.80
2023-02-24T05:16:45.063Z,0.88
2023-02-24T05:19:36.360Z,0.80
2023-02-24T05:22:04.748Z,0.65
2023-02-24T05:24:31.686Z,0.65
2023-02-24T05:27:03.835Z,0.90
2023-02-24T05:29:32.824Z,0.47
2023-02-24T05:32:00.127Z,0.60
2023-02-24T05:34:30.578Z,0.60
2023-02-24T05:36:59.287Z,0.70
2023-02-24T05:39:28.598Z,0.70
2023-02-24T05:41:57.294Z,0.60
2023-02-24T05:44:26.221Z,0.70
2023-02-24T05:47:00.196Z,0.70
2023-02-24T05:49:32.953Z,0.60
2023-02-24T05:52:02.184Z,0.52
2023-02-24T05:54:31.766Z,0.50
2023-02-24T05:57:00.347Z,0.55
2023-02-24T05:59:32.532Z,0.57
2023-02-24T06:02:07.437Z,0.40
2023-02-24T06:04:45.868Z,0.90
2023-02-24T06:07:13.984Z,0.80
2023-02-24T06:09:42.999Z,0.63
2023-02-24T06:12:10.168Z,0.50
2023-02-24T06:14:36.778Z,0.50
2023-02-24T06:17:03.886Z,0.52
2023-02-24T06:19:33.541Z,0.60
2023-02-24T06:22:04.465Z,0.70
2023-02-24T06:24:33.473Z,0.60
2023-02-24T06:27:09.606Z,0.43
2023-02-24T06:29:37.562Z,0.57
2023-02-24T06:32:10.307Z,0.50
2023-02-24T06:34:38.419Z,0.57
2023-02-24T06:37:07.458Z,0.60
2023-02-24T06:39:37.448Z,0.50
2023-02-24T06:42:05.527Z,0.50
2023-02-24T06:44:32.787Z,0.52
2023-02-24T06:46:59.606Z,0.50
2023-02-24T06:49:27.216Z,0.52
2023-02-24T06:51:57.758Z,0.60
2023-02-24T06:57:03.557Z,0.55
2023-02-24T06:59:30.566Z,0.70
2023-02-24T07:01:59.137Z,0.85
2023-02-24T07:04:28.486Z,0.68
2023-02-24T07:07:02.112Z,0.70
2023-02-24T07:09:30.611Z,0.95
2023-02-24T07:11:57.574Z,0.90
2023-02-24T07:14:26.466Z,0.93
2023-02-24T07:16:54.574Z,0.88
2023-02-24T07:19:24.165Z,0.80
2023-02-24T07:21:52.588Z,0.63
2023-02-24T07:24:25.156Z,1.10
2023-02-24T07:27:00.683Z,1.10
2023-02-24T07:29:29.119Z,0.90
2023-02-24T07:32:01.428Z,0.80
2023-02-24T07:34:28.379Z,0.90
2023-02-24T07:36:55.873Z,0.82
2023-02-24T07:39:24.122Z,1.00
2023-02-24T07:41:54.977Z,0.95
2023-02-24T07:44:24.231Z,1.10
2023-02-24T07:46:52.060Z,1.17
2023-02-24T07:49:22.577Z,1.15
2023-02-24T07:54:23.387Z,1.13
2023-02-24T07:56:59.628Z,1.08
2023-02-24T07:59:32.475Z,0.95
2023-02-24T08:02:00.486Z,0.77
2023-02-24T08:04:30.347Z,1.00
2023-02-24T08:06:58.915Z,0.82
2023-02-24T08:09:47.087Z,0.80
2023-02-24T08:12:22.420Z,0.95
2023-02-24T08:14:53.480Z,1.00
2023-02-24T08:17:21.516Z,0.88
2023-02-24T08:19:49.457Z,0.63
2023-02-24T08:22:20.852Z,0.70
2023-02-24T08:24:50.551Z,0.82
2023-02-24T08:27:20.346Z,0.63
2023-02-24T08:30:02.525Z,0.98
2023-02-24T08:32:33.960Z,0.90
2023-02-24T08:35:05.669Z,0.70
2023-02-24T08:37:40.052Z,0.85
2023-02-24T08:40:29.828Z,0.80
2023-02-24T08:42:58.963Z,0.90
2023-02-24T08:45:38.583Z,0.63
2023-02-24T08:48:18.290Z,0.70
2023-02-24T08:50:45.766Z,0.83
2023-02-24T08:53:19.227Z,0.88
2023-02-24T08:55:51.971Z,0.75
2023-02-24T08:58:19.806Z,0.65
2023-02-24T09:00:49.724Z,0.68
2023-02-24T09:03:28.304Z,1.00
2023-02-24T09:06:08.914Z,0.70
2023-02-24T09:11:13.948Z,0.65
2023-02-24T09:13:51.840Z,0.70
2023-02-24T09:16:23.574Z,0.70
2023-02-24T09:19:11.183Z,0.60
2023-02-24T09:21:50.266Z,0.80
2023-02-24T09:24:27.140Z,0.55
2023-02-24T09:26:59.816Z,0.70
2023-02-24T09:29:49.240Z,0.60
2023-02-24T09:32:16.299Z,0.60
2023-02-24T09:34:46.195Z,0.60
2023-02-24T09:37:27.230Z,0.70
2023-02-24T09:39:57.564Z,0.60
2023-02-24T09:42:34.389Z,0.70
2023-02-24T09:45:11.496Z,0.75
2023-02-24T09:47:57.612Z,0.63
2023-02-24T09:51:03.149Z,0.68
2023-02-24T09:53:41.177Z,0.73
2023-02-24T09:56:42.718Z,0.93
2023-02-24T09:59:11.895Z,0.70
2023-02-24T10:01:54.455Z,0.85
2023-02-24T10:04:40.647Z,0.80
2023-02-24T10:07:15.160Z,0.80
2023-02-24T10:09:48.843Z,1.05
2023-02-24T10:12:17.249Z,0.70
2023-02-24T10:15:20.660Z,0.98
2023-02-24T10:17:57.130Z,0.80
2023-02-24T10:20:44.686Z,0.80
2023-02-24T10:23:35.947Z,0.60
2023-02-24T10:26:07.584Z,0.80
2023-02-24T10:28:57.213Z,0.90
2023-02-24T10:31:43.612Z,0.80
2023-02-24T10:34:20.249Z,0.85
2023-02-24T10:36:50.308Z,1.23
2023-02-24T10:39:25.659Z,1.10
2023-02-24T10:42:15.649Z,1.50
2023-02-24T10:45:02.631Z,2.05
2023-02-24T10:47:31.627Z,2.22
2023-02-24T10:50:01.235Z,2.28
2023-02-24T10:52:59.298Z,2.45
2023-02-24T10:55:43.343Z,2.42
2023-02-24T10:58:28.140Z,2.30
2023-02-24T11:01:07.112Z,1.88
2023-02-24T11:03:43.784Z,1.52
2023-02-24T11:06:40.380Z,2.08
2023-02-24T11:09:27.598Z,1.80
2023-02-24T11:12:15.124Z,1.55
2023-02-24T11:15:12.699Z,1.90
2023-02-24T11:17:50.903Z,1.30
2023-02-24T11:20:20.790Z,1.42
2023-02-24T11:22:52.390Z,1.60
2023-02-24T11:25:24.468Z,1.50
2023-02-24T11:27:55.050Z,1.20
2023-02-24T11:33:20.524Z,1.27
2023-02-24T11:36:14.951Z,1.05
2023-02-24T11:39:03.161Z,1.10
2023-02-24T11:41:44.404Z,0.90
2023-02-24T11:44:13.946Z,1.20
2023-02-24T11:46:47.657Z,1.25
2023-02-24T11:49:23.041Z,0.95
2023-02-24T11:51:50.133Z,1.15
2023-02-24T11:54:19.699Z,1.17
2023-02-24T11:56:52.231Z,0.90
2023-02-24T11:59:40.498Z,1.10
2023-02-24T12:02:38.750Z,0.60
2023-02-24T12:05:14.036Z,0.85
2023-02-24T12:08:03.420Z,0.80
2023-02-24T12:10:36.875Z,0.73
2023-02-24T12:13:15.366Z,1.20
2023-02-24T12:15:56.409Z,0.80
2023-02-24T12:18:29.879Z,0.90
2023-02-24T12:21:14.881Z,1.02
2023-02-24T12:23:45.139Z,0.88
2023-02-24T12:26:48.290Z,0.98
2023-02-24T12:29:20.690Z,0.95
2023-02-24T12:31:57.141Z,0.88
2023-02-24T12:34:43.507Z,1.00
2023-02-24T12:37:30.907Z,0.80
2023-02-24T12:40:06.369Z,0.80
2023-02-24T12:42:51.692Z,1.00
2023-02-24T12:45:40.285Z,0.90
2023-02-24T12:48:17.142Z,0.95
2023-02-24T12:51:04.281Z,0.75
2023-02-24T12:54:04.421Z,0.90
2023-02-24T12:56:38.705Z,1.00
2023-02-24T12:59:10.168Z,0.90
2023-02-24T13:01:49.163Z,0.90
2023-02-24T13:04:24.506Z,1.13
2023-02-24T13:07:03.809Z,1.10
2023-02-24T13:09:41.564Z,0.88
2023-02-24T13:12:17.205Z,0.90
2023-02-24T13:14:45.181Z,0.90
2023-02-24T13:17:11.913Z,1.15
2023-02-24T13:19:43.909Z,1.30
2023-02-24T13:22:13.340Z,1.48
2023-02-24T13:24:55.631Z,1.27
2023-02-24T13:27:25.783Z,1.48
2023-02-24T13:29:58.336Z,1.02
2023-02-24T13:32:35.511Z,1.50
2023-02-24T13:35:27.013Z,1.33
2023-02-24T13:37:54.320Z,1.20
2023-02-24T13:40:23.757Z,1.48
2023-02-24T13:42:58.136Z,1.30
2023-02-24T13:45:29.215Z,1.42
2023-02-24T13:48:11.147Z,1.58
2023-02-24T13:51:08.454Z,1.20
2023-02-24T13:54:04.836Z,1.40
2023-02-24T13:57:09.975Z,1.58
2023-02-24T13:59:57.613Z,1.30
2023-02-24T14:02:30.338Z,1.45
2023-02-24T14:05:00.165Z,1.50
2023-02-24T14:07:35.013Z,1.63
2023-02-24T14:10:15.941Z,1.38
2023-02-24T14:12:43.345Z,1.63
2023-02-24T14:15:15.792Z,1.63
2023-02-24T14:17:42.378Z,1.65
2023-02-24T14:20:15.785Z,1.75
2023-02-24T14:22:50.551Z,1.55
2023-02-24T14:25:18.220Z,1.33
2023-02-24T14:27:48.630Z,1.73
2023-02-24T14:30:26.283Z,1.65
2023-02-24T14:32:53.476Z,1.60
2023-02-24T14:35:27.773Z,1.80
2023-02-24T14:37:54.338Z,1.35
2023-02-24T14:40:25.376Z,2.10
2023-02-24T14:42:54.667Z,2.13
2023-02-24T14:45:27.532Z,1.90
2023-02-24T14:47:55.867Z,2.05
2023-02-24T14:50:30.142Z,1.50
2023-02-24T14:53:03.503Z,1.50
2023-02-24T14:55:33.290Z,1.52
2023-02-24T14:58:14.283Z,1.45
2023-02-24T15:00:52.110Z,1.48
2023-02-24T15:03:32.694Z,1.60
2023-02-24T15:08:35.917Z,1.60
2023-02-24T15:11:11.652Z,1.42
2023-02-24T15:13:45.843Z,1.45
2023-02-24T15:17:01.517Z,1.80
2023-02-24T15:19:36.001Z,1.50
2023-02-24T15:22:03.789Z,1.17
2023-02-24T15:24:34.781Z,1.02
2023-02-24T15:27:19.498Z,1.42
2023-02-24T15:29:57.837Z,1.67
2023-02-24T15:32:28.098Z,1.50
2023-02-24T15:34:56.026Z,1.80
2023-02-24T15:37:25.862Z,1.52
2023-02-24T15:40:02.127Z,1.20
2023-02-24T15:42:33.636Z,1.42
2023-02-24T15:45:07.084Z,1.45
2023-02-24T15:47:44.816Z,1.42
2023-02-24T15:50:12.794Z,1.60
2023-02-24T15:52:41.137Z,1.23
2023-02-24T15:55:10.664Z,1.30
2023-02-24T15:57:37.245Z,1.27
2023-02-24T16:00:13.091Z,1.65
2023-02-24T16:02:41.184Z,1.40
2023-02-24T16:05:12.649Z,1.40
2023-02-24T16:07:40.196Z,1.33
2023-02-24T16:10:08.570Z,1.50
2023-02-24T16:12:48.855Z,1.10
2023-02-24T16:15:23.824Z,1.65
2023-02-24T16:17:51.612Z,1.25
2023-02-24T16:20:27.383Z,1.60
2023-02-24T16:23:02.682Z,1.52
2023-02-24T16:25:31.821Z,1.48
2023-02-24T16:27:58.441Z,1.38
2023-02-24T16:30:30.191Z,1.50
2023-02-24T16:32:58.750Z,1.55
2023-02-24T16:35:26.330Z,1.70
2023-02-24T16:37:53.568Z,1.60
2023-02-24T16:40:33.708Z,1.80
2023-02-24T16:43:00.205Z,1.77
2023-02-24T16:45:28.950Z,1.50
2023-02-24T16:48:00.031Z,1.85
2023-02-24T16:50:39.418Z,1.80
2023-02-24T16:53:07.623Z,2.15
2023-02-24T16:55:35.311Z,2.00
2023-02-24T16:58:01.846Z,1.80
2023-02-24T17:00:28.700Z,1.80
2023-02-24T17:02:55.424Z,1.80
2023-02-24T17:05:27.133Z,1.73
2023-02-24T17:07:56.117Z,1.83
2023-02-24T17:10:25.215Z,1.67
2023-02-24T17:12:52.185Z,1.65
2023-02-24T17:15:22.061Z,1.67
2023-02-24T17:17:48.605Z,1.58
2023-02-24T17:20:18.295Z,1.50
2023-02-24T17:22:45.403Z,1.53
2023-02-24T17:25:24.669Z,1.30
2023-02-24T17:27:51.943Z,1.48
2023-02-24T17:30:22.261Z,1.35
2023-02-24T17:32:49.008Z,1.50
2023-02-24T17:35:15.895Z,1.30
2023-02-24T17:37:42.464Z,1.42
2023-02-24T17:40:10.187Z,1.27
2023-02-24T17:42:37.098Z,1.60
2023-02-24T17:45:05.637Z,1.25
2023-02-24T17:47:32.679Z,1.20
2023-02-24T17:49:59.183Z,1.30
2023-02-24T17:52:25.872Z,1.50
2023-02-24T17:54:52.459Z,1.20
2023-02-24T17:57:19.000Z,1.20
2023-02-24T17:59:46.083Z,1.08
2023-02-24T18:02:14.141Z,1.38
2023-02-24T18:04:41.033Z,1.23
2023-02-24T18:07:09.255Z,1.20
2023-02-24T18:09:36.295Z,1.33
2023-02-24T18:12:03.093Z,1.40
2023-02-24T18:14:29.757Z,1.38
2023-02-24T18:16:56.404Z,1.10
2023-02-24T18:19:23.645Z,1.27
2023-02-24T18:21:50.201Z,0.88
2023-02-24T18:24:16.740Z,0.80
2023-02-24T18:26:43.296Z,0.93
2023-02-24T18:29:09.884Z,1.20
2023-02-24T18:31:36.658Z,1.17
2023-02-24T18:34:03.729Z,1.30
2023-02-24T18:36:30.632Z,1.00
2023-02-24T18:38:57.977Z,1.50
2023-02-24T18:41:24.879Z,1.02
2023-02-24T18:43:54.926Z,0.88
2023-02-24T18:46:23.332Z,1.15
2023-02-24T18:48:50.333Z,1.00
2023-02-24T18:51:20.387Z,0.95
2023-02-24T18:53:47.607Z,0.88
2023-02-24T18:56:17.703Z,0.90
2023-02-24T18:58:45.729Z,0.90
2023-02-24T19:01:21.768Z,1.20
2023-02-24T19:03:50.837Z,1.05
2023-02-24T19:06:21.946Z,1.20
2023-02-24T19:08:54.930Z,1.00
2023-02-24T19:11:21.606Z,1.13
2023-02-24T19:13:48.425Z,1.30
2023-02-24T19:16:16.467Z,1.17
2023-02-24T19:18:43.752Z,1.30
2023-02-24T19:21:11.052Z,0.90
2023-02-24T19:23:38.894Z,1.10
2023-02-24T19:26:07.545Z,1.10
2023-02-24T19:28:34.117Z,1.17
2023-02-24T19:31:00.747Z,1.75
2023-02-24T19:33:27.292Z,1.13
2023-02-24T19:35:59.487Z,1.02
2023-02-24T19:38:26.182Z,1.05
2023-02-24T19:40:52.681Z,1.00
2023-02-24T19:43:19.145Z,1.13
2023-02-24T19:45:46.024Z,1.08
2023-02-24T19:48:13.024Z,1.05
2023-02-24T19:50:40.917Z,1.27
2023-02-24T19:53:08.641Z,1.00
2023-02-24T19:55:35.166Z,0.90
2023-02-24T19:58:01.845Z,0.90
2023-02-24T20:00:28.389Z,0.90
2023-02-24T20:02:54.888Z,0.98
2023-02-24T20:05:21.721Z,0.95
2023-02-24T20:07:48.376Z,0.90
2023-02-24T20:10:16.584Z,1.20
2023-02-24T20:12:44.944Z,1.05
2023-02-24T20:15:11.809Z,1.20
2023-02-24T20:17:38.458Z,1.13
2023-02-24T20:20:05.628Z,1.10
2023-02-24T20:22:32.140Z,1.08
2023-02-24T20:24:58.650Z,0.95
2023-02-24T20:27:25.224Z,1.20
2023-02-24T20:29:53.547Z,1.10
2023-02-24T20:32:20.382Z,1.08
2023-02-24T20:34:47.128Z,0.93
2023-02-24T20:37:13.781Z,1.33
2023-02-24T20:39:40.407Z,1.15
2023-02-24T20:42:06.952Z,1.20
2023-02-24T20:44:33.897Z,1.08
2023-02-24T20:47:00.349Z,1.38
2023-02-24T20:49:27.260Z,1.10
2023-02-24T20:51:54.359Z,1.00
2023-02-24T20:54:21.035Z,1.02
2023-02-24T20:56:48.124Z,1.23
2023-02-24T20:59:17.430Z,1.40
2023-02-24T21:01:47.304Z,1.10
2023-02-24T21:04:16.809Z,1.40
2023-02-24T21:06:43.487Z,1.40
2023-02-24T21:09:11.961Z,1.45
2023-02-24T21:11:38.983Z,1.30
2023-02-24T21:14:06.104Z,1.25
2023-02-24T21:16:35.275Z,1.33
2023-02-24T21:19:01.904Z,1.10
2023-02-24T21:21:28.571Z,1.30
2023-02-24T21:23:56.594Z,1.00
2023-02-24T21:26:26.676Z,1.17
2023-02-24T21:28:57.168Z,1.13
2023-02-24T21:31:25.276Z,0.90
2023-02-24T21:33:53.333Z,1.08
2023-02-24T21:36:23.549Z,1.20
2023-02-24T21:41:19.439Z,1.15
2023-02-24T21:43:46.575Z,1.65
2023-02-24T21:46:14.288Z,0.98
2023-02-24T21:48:41.932Z,1.13
2023-02-24T21:51:11.084Z,1.10
2023-02-24T21:53:39.527Z,1.17
2023-02-24T21:56:16.570Z,1.13
2023-02-24T21:58:45.989Z,1.15
2023-02-24T22:01:15.523Z,1.08
2023-02-24T22:03:42.396Z,1.25
2023-02-24T22:06:11.349Z,1.08
2023-02-24T22:08:43.053Z,0.82
2023-02-24T22:11:12.356Z,1.10
2023-02-24T22:13:40.210Z,0.85
2023-02-24T22:16:12.948Z,1.00
2023-02-24T22:18:40.055Z,1.23
2023-02-24T22:21:12.578Z,0.75
2023-02-24T22:23:39.397Z,1.13
2023-02-24T22:26:08.956Z,1.17
2023-02-24T22:28:38.336Z,0.90
2023-02-24T22:31:07.151Z,1.40
2023-02-24T22:33:35.815Z,0.82
2023-02-24T22:36:06.457Z,1.40
2023-02-24T22:38:34.371Z,0.80
2023-02-24T22:41:02.845Z,1.17
2023-02-24T22:43:30.375Z,1.10
2023-02-24T22:46:04.248Z,0.90
2023-02-24T22:48:32.459Z,1.17
2023-02-24T22:51:01.020Z,1.20
2023-02-24T22:53:29.500Z,1.02
2023-02-24T22:55:59.446Z,0.93
2023-02-24T22:58:26.537Z,0.88
2023-02-24T23:00:54.516Z,1.00
2023-02-24T23:03:24.304Z,1.10
2023-02-24T23:05:55.184Z,1.08
2023-02-24T23:08:22.511Z,1.20
2023-02-24T23:10:49.739Z,0.77
2023-02-24T23:13:17.340Z,1.00
2023-02-24T23:15:44.344Z,0.80
2023-02-24T23:18:11.220Z,1.02
2023-02-24T23:20:37.785Z,1.20
2023-02-24T23:23:04.381Z,1.00
2023-02-24T23:25:31.037Z,0.95
2023-02-24T23:27:57.708Z,0.73
2023-02-24T23:30:24.225Z,1.00
2023-02-24T23:32:50.887Z,0.90
2023-02-24T23:35:17.496Z,0.82
2023-02-24T23:37:43.982Z,0.80
2023-02-24T23:40:11.379Z,0.77
2023-02-24T23:42:38.416Z,0.90
2023-02-24T23:45:06.353Z,0.95
2023-02-24T23:47:32.942Z,1.00
2023-02-24T23:49:59.484Z,0.93
2023-02-24T23:52:26.377Z,0.93
2023-02-24T23:54:52.916Z,0.90
2023-02-24T23:57:20.998Z,0.82
2023-02-24T23:59:47.664Z,1.13
